sensor_id;sensor_type;location;lat;lon;timestamp;P1;durP1;ratioP1;P2;durP2;ratioP2
20229;SDS011;12195;55.790;37.572;2024-01-15T00:01:55;12.47;;;6.90;;
20229;SDS011;12195;55.790;37.572;2024-01-15T00:04:28;11.97;;;6.08;;
20229;SDS011;12195;55.790;37.572;2024-01-15T00:07:01;5.53;;;3.95;;
20229;SDS011;12195;55.790;37.572;2024-01-15T00:09:34;14.45;;;7.08;;
20229;SDS011;12195;55.790;37.572;2024-01-15T00:12:07;11.22;;;6.30;;
20229;SDS011;12195;55.790;37.572;2024-01-15T00:14:40;11.70;;;6.65;;
20229;SDS011;12195;55.790;37.572;2024-01-15T00:17:12;7.22;;;4.35;;
20229;SDS011;12195;55.790;37.572;2024-01-15T00:19:45;12.73;;;6.50;;
20229;SDS011;12195;55.790;37.572;2024-01-15T00:22:18;15.38;;;7.08;;
20229;SDS011;12195;55.790;37.572;2024-01-15T00:24:50;13.22;;;6.75;;
20229;SDS011;12195;55.790;37.572;2024-01-15T00:27:23;12.50;;;6.20;;
20229;SDS011;12195;55.790;37.572;2024-01-15T00:29:55;10.78;;;6.00;;
20229;SDS011;12195;55.790;37.572;2024-01-15T00:32:28;12.58;;;5.85;;
20229;SDS011;12195;55.790;37.572;2024-01-15T00:35:01;11.27;;;6.37;;
20229;SDS011;12195;55.790;37.572;2024-01-15T00:37:34;13.03;;;6.30;;
20229;SDS011;12195;55.790;37.572;2024-01-15T00:40:06;12.85;;;6.28;;
20229;SDS011;12195;55.790;37.572;2024-01-15T00:42:40;14.85;;;7.00;;
20229;SDS011;12195;55.790;37.572;2024-01-15T00:45:13;17.57;;;8.38;;
20229;SDS011;12195;55.790;37.572;2024-01-15T00:47:46;14.10;;;6.50;;
20229;SDS011;12195;55.790;37.572;2024-01-15T00:50:18;11.50;;;6.95;;
20229;SDS011;12195;55.790;37.572;2024-01-15T00:52:51;12.20;;;6.70;;
20229;SDS011;12195;55.790;37.572;2024-01-15T00:55:23;8.60;;;5.80;;
20229;SDS011;12195;55.790;37.572;2024-01-15T00:57:56;14.23;;;7.15;;
20229;SDS011;12195;55.790;37.572;2024-01-15T01:00:28;11.60;;;6.50;;
20229;SDS011;12195;55.790;37.572;2024-01-15T01:03:01;19.57;;;7.15;;
20229;SDS011;12195;55.790;37.572;2024-01-15T01:05:34;13.20;;;7.43;;
20229;SDS011;12195;55.790;37.572;2024-01-15T01:08:06;17.13;;;7.57;;
20229;SDS011;12195;55.790;37.572;2024-01-15T01:10:39;12.68;;;5.80;;
20229;SDS011;12195;55.790;37.572;2024-01-15T01:13:13;11.90;;;6.17;;
20229;SDS011;12195;55.790;37.572;2024-01-15T01:15:45;15.40;;;7.12;;
20229;SDS011;12195;55.790;37.572;2024-01-15T01:18:18;12.53;;;6.80;;
20229;SDS011;12195;55.790;37.572;2024-01-15T01:20:51;11.77;;;6.53;;
20229;SDS011;12195;55.790;37.572;2024-01-15T01:23:24;14.70;;;6.62;;
20229;SDS011;12195;55.790;37.572;2024-01-15T01:28:29;12.93;;;7.53;;
20229;SDS011;12195;55.790;37.572;2024-01-15T01:31:02;12.88;;;7.03;;
20229;SDS011;12195;55.790;37.572;2024-01-15T01:33:35;15.90;;;7.07;;
20229;SDS011;12195;55.790;37.572;2024-01-15T01:36:10;14.38;;;7.67;;
20229;SDS011;12195;55.790;37.572;2024-01-15T01:38:43;12.70;;;6.80;;
20229;SDS011;12195;55.790;37.572;2024-01-15T01:41:17;11.65;;;7.15;;
20229;SDS011;12195;55.790;37.572;2024-01-15T01:43:50;15.38;;;7.85;;
20229;SDS011;12195;55.790;37.572;2024-01-15T01:46:23;13.13;;;7.67;;
20229;SDS011;12195;55.790;37.572;2024-01-15T01:48:57;14.13;;;7.95;;
20229;SDS011;12195;55.790;37.572;2024-01-15T01:51:32;9.90;;;6.28;;
20229;SDS011;12195;55.790;37.572;2024-01-15T01:54:08;13.53;;;7.78;;
20229;SDS011;12195;55.790;37.572;2024-01-15T01:56:43;14.47;;;7.83;;
20229;SDS011;12195;55.790;37.572;2024-01-15T01:59:16;13.68;;;7.28;;
20229;SDS011;12195;55.790;37.572;2024-01-15T02:01:49;17.53;;;7.40;;
20229;SDS011;12195;55.790;37.572;2024-01-15T02:04:23;13.30;;;5.97;;
20229;SDS011;12195;55.790;37.572;2024-01-15T02:06:56;15.65;;;7.85;;
20229;SDS011;12195;55.790;37.572;2024-01-15T02:09:30;17.40;;;8.23;;
20229;SDS011;12195;55.790;37.572;2024-01-15T02:12:03;54.50;;;14.90;;
20229;SDS011;12195;55.790;37.572;2024-01-15T02:14:36;15.10;;;7.72;;
20229;SDS011;12195;55.790;37.572;2024-01-15T02:17:09;14.80;;;8.13;;
20229;SDS011;12195;55.790;37.572;2024-01-15T02:19:42;23.50;;;7.72;;
20229;SDS011;12195;55.790;37.572;2024-01-15T02:22:15;19.55;;;8.18;;
20229;SDS011;12195;55.790;37.572;2024-01-15T02:24:48;15.08;;;7.95;;
20229;SDS011;12195;55.790;37.572;2024-01-15T02:27:20;10.23;;;5.53;;
20229;SDS011;12195;55.790;37.572;2024-01-15T02:29:53;17.93;;;7.50;;
20229;SDS011;12195;55.790;37.572;2024-01-15T02:32:27;21.65;;;8.58;;
20229;SDS011;12195;55.790;37.572;2024-01-15T02:34:59;32.67;;;11.15;;
20229;SDS011;12195;55.790;37.572;2024-01-15T02:37:32;17.42;;;8.58;;
20229;SDS011;12195;55.790;37.572;2024-01-15T02:40:05;12.15;;;7.85;;
20229;SDS011;12195;55.790;37.572;2024-01-15T02:42:38;18.02;;;8.65;;
20229;SDS011;12195;55.790;37.572;2024-01-15T02:45:11;14.63;;;8.38;;
20229;SDS011;12195;55.790;37.572;2024-01-15T02:47:44;14.80;;;7.90;;
20229;SDS011;12195;55.790;37.572;2024-01-15T02:50:17;13.23;;;7.43;;
20229;SDS011;12195;55.790;37.572;2024-01-15T02:52:49;19.15;;;9.23;;
20229;SDS011;12195;55.790;37.572;2024-01-15T02:55:22;14.37;;;8.17;;
20229;SDS011;12195;55.790;37.572;2024-01-15T02:57:55;17.05;;;8.53;;
20229;SDS011;12195;55.790;37.572;2024-01-15T03:00:27;15.30;;;7.62;;
20229;SDS011;12195;55.790;37.572;2024-01-15T03:03:00;21.65;;;8.68;;
20229;SDS011;12195;55.790;37.572;2024-01-15T03:05:32;17.27;;;9.40;;
20229;SDS011;12195;55.790;37.572;2024-01-15T03:08:05;15.83;;;8.48;;
20229;SDS011;12195;55.790;37.572;2024-01-15T03:10:38;17.60;;;9.08;;
20229;SDS011;12195;55.790;37.572;2024-01-15T03:13:10;18.70;;;9.03;;
20229;SDS011;12195;55.790;37.572;2024-01-15T03:15:43;18.55;;;8.95;;
20229;SDS011;12195;55.790;37.572;2024-01-15T03:18:16;9.90;;;6.35;;
20229;SDS011;12195;55.790;37.572;2024-01-15T03:23:22;20.25;;;9.13;;
20229;SDS011;12195;55.790;37.572;2024-01-15T03:25:54;16.37;;;9.13;;
20229;SDS011;12195;55.790;37.572;2024-01-15T03:28:27;13.98;;;8.18;;
20229;SDS011;12195;55.790;37.572;2024-01-15T03:31:01;12.80;;;5.80;;
20229;SDS011;12195;55.790;37.572;2024-01-15T03:33:34;10.37;;;5.70;;
20229;SDS011;12195;55.790;37.572;2024-01-15T03:36:07;16.15;;;8.20;;
20229;SDS011;12195;55.790;37.572;2024-01-15T03:38:41;16.27;;;7.17;;
20229;SDS011;12195;55.790;37.572;2024-01-15T03:41:14;20.13;;;9.67;;
20229;SDS011;12195;55.790;37.572;2024-01-15T03:43:47;19.45;;;10.32;;
20229;SDS011;12195;55.790;37.572;2024-01-15T03:46:19;21.02;;;10.50;;
20229;SDS011;12195;55.790;37.572;2024-01-15T03:48:52;19.98;;;8.30;;
20229;SDS011;12195;55.790;37.572;2024-01-15T03:51:26;17.87;;;8.18;;
20229;SDS011;12195;55.790;37.572;2024-01-15T03:53:59;14.53;;;7.55;;
20229;SDS011;12195;55.790;37.572;2024-01-15T03:56:32;20.57;;;10.20;;
20229;SDS011;12195;55.790;37.572;2024-01-15T03:59:05;17.80;;;6.97;;
20229;SDS011;12195;55.790;37.572;2024-01-15T04:01:38;18.37;;;9.28;;
20229;SDS011;12195;55.790;37.572;2024-01-15T04:04:10;15.80;;;9.33;;
20229;SDS011;12195;55.790;37.572;2024-01-15T04:06:45;22.93;;;10.78;;
20229;SDS011;12195;55.790;37.572;2024-01-15T04:09:18;17.17;;;9.30;;
20229;SDS011;12195;55.790;37.572;2024-01-15T04:11:50;13.08;;;5.83;;
20229;SDS011;12195;55.790;37.572;2024-01-15T04:14:26;16.52;;;8.83;;
20229;SDS011;12195;55.790;37.572;2024-01-15T04:16:59;17.32;;;9.53;;
20229;SDS011;12195;55.790;37.572;2024-01-15T04:19:32;14.43;;;7.65;;
20229;SDS011;12195;55.790;37.572;2024-01-15T04:22:05;17.87;;;10.15;;
20229;SDS011;12195;55.790;37.572;2024-01-15T04:24:38;17.98;;;9.35;;
20229;SDS011;12195;55.790;37.572;2024-01-15T04:27:11;19.27;;;10.00;;
20229;SDS011;12195;55.790;37.572;2024-01-15T04:29:45;18.75;;;10.38;;
20229;SDS011;12195;55.790;37.572;2024-01-15T04:32:18;20.92;;;9.38;;
20229;SDS011;12195;55.790;37.572;2024-01-15T04:34:51;18.52;;;8.90;;
20229;SDS011;12195;55.790;37.572;2024-01-15T04:37:25;15.30;;;8.30;;
20229;SDS011;12195;55.790;37.572;2024-01-15T04:39:58;16.03;;;7.10;;
20229;SDS011;12195;55.790;37.572;2024-01-15T04:45:04;19.23;;;10.43;;
20229;SDS011;12195;55.790;37.572;2024-01-15T04:47:37;25.45;;;10.53;;
20229;SDS011;12195;55.790;37.572;2024-01-15T04:50:11;24.82;;;10.65;;
20229;SDS011;12195;55.790;37.572;2024-01-15T04:52:45;26.75;;;10.82;;
20229;SDS011;12195;55.790;37.572;2024-01-15T04:55:19;21.80;;;10.93;;
20229;SDS011;12195;55.790;37.572;2024-01-15T04:57:52;18.02;;;9.53;;
20229;SDS011;12195;55.790;37.572;2024-01-15T05:00:25;8.75;;;4.15;;
20229;SDS011;12195;55.790;37.572;2024-01-15T05:02:58;21.40;;;11.22;;
20229;SDS011;12195;55.790;37.572;2024-01-15T05:08:05;21.70;;;8.58;;
20229;SDS011;12195;55.790;37.572;2024-01-15T05:10:37;16.17;;;8.50;;
20229;SDS011;12195;55.790;37.572;2024-01-15T05:15:43;9.70;;;5.10;;
20229;SDS011;12195;55.790;37.572;2024-01-15T05:18:17;17.10;;;9.40;;
20229;SDS011;12195;55.790;37.572;2024-01-15T05:20:50;9.00;;;4.87;;
20229;SDS011;12195;55.790;37.572;2024-01-15T05:23:24;20.92;;;10.93;;
20229;SDS011;12195;55.790;37.572;2024-01-15T05:25:57;14.80;;;7.92;;
20229;SDS011;12195;55.790;37.572;2024-01-15T05:28:30;23.12;;;10.32;;
20229;SDS011;12195;55.790;37.572;2024-01-15T05:31:04;22.22;;;10.58;;
20229;SDS011;12195;55.790;37.572;2024-01-15T05:33:38;18.40;;;10.78;;
20229;SDS011;12195;55.790;37.572;2024-01-15T05:36:12;14.38;;;7.55;;
20229;SDS011;12195;55.790;37.572;2024-01-15T05:38:45;18.90;;;10.93;;
20229;SDS011;12195;55.790;37.572;2024-01-15T05:43:51;22.37;;;11.65;;
20229;SDS011;12195;55.790;37.572;2024-01-15T05:46:24;25.92;;;12.07;;
20229;SDS011;12195;55.790;37.572;2024-01-15T05:48:57;16.62;;;9.50;;
20229;SDS011;12195;55.790;37.572;2024-01-15T05:51:31;20.72;;;11.28;;
20229;SDS011;12195;55.790;37.572;2024-01-15T05:54:04;23.50;;;10.32;;
20229;SDS011;12195;55.790;37.572;2024-01-15T05:56:37;18.05;;;8.73;;
20229;SDS011;12195;55.790;37.572;2024-01-15T05:59:11;21.95;;;12.23;;
20229;SDS011;12195;55.790;37.572;2024-01-15T06:01:45;22.42;;;11.12;;
20229;SDS011;12195;55.790;37.572;2024-01-15T06:04:18;17.90;;;8.58;;
20229;SDS011;12195;55.790;37.572;2024-01-15T06:06:52;20.92;;;11.93;;
20229;SDS011;12195;55.790;37.572;2024-01-15T06:11:58;21.37;;;11.33;;
20229;SDS011;12195;55.790;37.572;2024-01-15T06:14:31;25.97;;;11.78;;
20229;SDS011;12195;55.790;37.572;2024-01-15T06:17:04;21.93;;;8.50;;
20229;SDS011;12195;55.790;37.572;2024-01-15T06:22:10;18.70;;;9.95;;
20229;SDS011;12195;55.790;37.572;2024-01-15T06:24:43;17.83;;;9.57;;
20229;SDS011;12195;55.790;37.572;2024-01-15T06:27:16;27.35;;;12.23;;
20229;SDS011;12195;55.790;37.572;2024-01-15T06:29:50;26.50;;;11.13;;
20229;SDS011;12195;55.790;37.572;2024-01-15T06:32:23;17.92;;;10.40;;
20229;SDS011;12195;55.790;37.572;2024-01-15T06:34:58;29.35;;;13.08;;
20229;SDS011;12195;55.790;37.572;2024-01-15T06:37:31;23.90;;;11.95;;
20229;SDS011;12195;55.790;37.572;2024-01-15T06:40:05;16.20;;;8.43;;
20229;SDS011;12195;55.790;37.572;2024-01-15T06:42:40;17.05;;;10.40;;
20229;SDS011;12195;55.790;37.572;2024-01-15T06:45:13;19.07;;;9.40;;
20229;SDS011;12195;55.790;37.572;2024-01-15T06:47:46;22.60;;;10.28;;
20229;SDS011;12195;55.790;37.572;2024-01-15T06:50:19;21.73;;;12.20;;
20229;SDS011;12195;55.790;37.572;2024-01-15T06:52:52;30.17;;;14.87;;
20229;SDS011;12195;55.790;37.572;2024-01-15T06:55:24;21.97;;;11.35;;
20229;SDS011;12195;55.790;37.572;2024-01-15T06:58:00;25.50;;;12.68;;
20229;SDS011;12195;55.790;37.572;2024-01-15T07:00:33;31.07;;;13.45;;
20229;SDS011;12195;55.790;37.572;2024-01-15T07:03:08;29.45;;;13.08;;
20229;SDS011;12195;55.790;37.572;2024-01-15T07:05:41;26.93;;;13.70;;
20229;SDS011;12195;55.790;37.572;2024-01-15T07:08:14;29.82;;;12.95;;
20229;SDS011;12195;55.790;37.572;2024-01-15T07:13:20;25.62;;;12.25;;
20229;SDS011;12195;55.790;37.572;2024-01-15T07:15:53;24.82;;;11.78;;
20229;SDS011;12195;55.790;37.572;2024-01-15T07:18:25;32.30;;;13.70;;
20229;SDS011;12195;55.790;37.572;2024-01-15T07:20:59;18.98;;;9.80;;
20229;SDS011;12195;55.790;37.572;2024-01-15T07:23:33;24.65;;;12.33;;
20229;SDS011;12195;55.790;37.572;2024-01-15T07:26:06;13.88;;;8.45;;
20229;SDS011;12195;55.790;37.572;2024-01-15T07:31:12;22.25;;;11.80;;
20229;SDS011;12195;55.790;37.572;2024-01-15T07:33:47;23.20;;;12.73;;
20229;SDS011;12195;55.790;37.572;2024-01-15T07:36:21;20.85;;;10.78;;
20229;SDS011;12195;55.790;37.572;2024-01-15T07:38:55;19.27;;;10.88;;
20229;SDS011;12195;55.790;37.572;2024-01-15T07:41:31;19.40;;;10.75;;
20229;SDS011;12195;55.790;37.572;2024-01-15T07:44:06;18.48;;;11.28;;
20229;SDS011;12195;55.790;37.572;2024-01-15T07:46:44;18.15;;;11.48;;
20229;SDS011;12195;55.790;37.572;2024-01-15T07:49:19;29.92;;;12.13;;
20229;SDS011;12195;55.790;37.572;2024-01-15T07:51:55;13.10;;;7.97;;
20229;SDS011;12195;55.790;37.572;2024-01-15T07:54:29;27.27;;;13.28;;
20229;SDS011;12195;55.790;37.572;2024-01-15T07:57:05;22.07;;;11.80;;
20229;SDS011;12195;55.790;37.572;2024-01-15T07:59:41;19.07;;;10.93;;
20229;SDS011;12195;55.790;37.572;2024-01-15T08:04:47;30.37;;;13.53;;
20229;SDS011;12195;55.790;37.572;2024-01-15T08:07:22;19.12;;;9.43;;
20229;SDS011;12195;55.790;37.572;2024-01-15T08:09:55;25.23;;;12.28;;
20229;SDS011;12195;55.790;37.572;2024-01-15T08:12:30;25.12;;;11.10;;
20229;SDS011;12195;55.790;37.572;2024-01-15T08:15:06;22.17;;;13.08;;
20229;SDS011;12195;55.790;37.572;2024-01-15T08:17:39;25.90;;;12.28;;
20229;SDS011;12195;55.790;37.572;2024-01-15T08:20:15;21.62;;;12.28;;
20229;SDS011;12195;55.790;37.572;2024-01-15T08:22:48;19.25;;;9.93;;
20229;SDS011;12195;55.790;37.572;2024-01-15T08:25:24;24.67;;;13.32;;
20229;SDS011;12195;55.790;37.572;2024-01-15T08:27:59;21.77;;;11.22;;
20229;SDS011;12195;55.790;37.572;2024-01-15T08:30:34;21.25;;;11.73;;
20229;SDS011;12195;55.790;37.572;2024-01-15T08:33:10;22.15;;;13.18;;
20229;SDS011;12195;55.790;37.572;2024-01-15T08:35:46;28.90;;;13.75;;
20229;SDS011;12195;55.790;37.572;2024-01-15T08:38:25;24.85;;;14.53;;
20229;SDS011;12195;55.790;37.572;2024-01-15T08:40:59;25.70;;;14.35;;
20229;SDS011;12195;55.790;37.572;2024-01-15T08:43:32;34.55;;;15.05;;
20229;SDS011;12195;55.790;37.572;2024-01-15T08:46:06;37.35;;;15.32;;
20229;SDS011;12195;55.790;37.572;2024-01-15T08:48:41;24.67;;;14.10;;
20229;SDS011;12195;55.790;37.572;2024-01-15T08:53:48;25.95;;;12.07;;
20229;SDS011;12195;55.790;37.572;2024-01-15T08:56:23;20.95;;;10.88;;
20229;SDS011;12195;55.790;37.572;2024-01-15T08:58:56;32.27;;;14.33;;
20229;SDS011;12195;55.790;37.572;2024-01-15T09:01:29;29.12;;;12.23;;
20229;SDS011;12195;55.790;37.572;2024-01-15T09:04:03;26.48;;;12.25;;
20229;SDS011;12195;55.790;37.572;2024-01-15T09:06:39;21.40;;;11.38;;
20229;SDS011;12195;55.790;37.572;2024-01-15T09:09:14;31.82;;;13.72;;
20229;SDS011;12195;55.790;37.572;2024-01-15T09:11:48;26.50;;;12.80;;
20229;SDS011;12195;55.790;37.572;2024-01-15T09:14:22;20.32;;;11.73;;
20229;SDS011;12195;55.790;37.572;2024-01-15T09:17:01;22.55;;;12.18;;
20229;SDS011;12195;55.790;37.572;2024-01-15T09:19:36;19.57;;;10.50;;
20229;SDS011;12195;55.790;37.572;2024-01-15T09:22:12;25.75;;;13.13;;
20229;SDS011;12195;55.790;37.572;2024-01-15T09:24:47;31.05;;;13.08;;
20229;SDS011;12195;55.790;37.572;2024-01-15T09:27:21;21.60;;;10.00;;
20229;SDS011;12195;55.790;37.572;2024-01-15T09:29:56;29.18;;;12.35;;
20229;SDS011;12195;55.790;37.572;2024-01-15T09:32:31;46.65;;;14.80;;
20229;SDS011;12195;55.790;37.572;2024-01-15T09:35:05;27.45;;;14.03;;
20229;SDS011;12195;55.790;37.572;2024-01-15T09:37:41;38.45;;;15.13;;
20229;SDS011;12195;55.790;37.572;2024-01-15T09:40:16;80.85;;;20.32;;
20229;SDS011;12195;55.790;37.572;2024-01-15T09:42:51;30.75;;;14.80;;
20229;SDS011;12195;55.790;37.572;2024-01-15T09:45:25;40.67;;;14.25;;
20229;SDS011;12195;55.790;37.572;2024-01-15T09:47:58;35.98;;;13.00;;
20229;SDS011;12195;55.790;37.572;2024-01-15T09:50:32;39.25;;;13.25;;
20229;SDS011;12195;55.790;37.572;2024-01-15T09:53:05;19.80;;;8.58;;
20229;SDS011;12195;55.790;37.572;2024-01-15T09:55:39;44.98;;;15.80;;
20229;SDS011;12195;55.790;37.572;2024-01-15T09:58:12;33.13;;;12.78;;
20229;SDS011;12195;55.790;37.572;2024-01-15T10:00:47;31.10;;;12.85;;
20229;SDS011;12195;55.790;37.572;2024-01-15T10:03:21;41.02;;;12.13;;
20229;SDS011;12195;55.790;37.572;2024-01-15T10:05:54;34.80;;;10.60;;
20229;SDS011;12195;55.790;37.572;2024-01-15T10:08:30;24.92;;;10.78;;
20229;SDS011;12195;55.790;37.572;2024-01-15T10:11:05;23.50;;;12.58;;
20229;SDS011;12195;55.790;37.572;2024-01-15T10:13:39;29.23;;;12.33;;
20229;SDS011;12195;55.790;37.572;2024-01-15T10:16:13;24.72;;;11.97;;
20229;SDS011;12195;55.790;37.572;2024-01-15T10:18:48;35.35;;;12.35;;
20229;SDS011;12195;55.790;37.572;2024-01-15T10:23:54;27.25;;;10.88;;
20229;SDS011;12195;55.790;37.572;2024-01-15T10:26:26;23.27;;;9.40;;
20229;SDS011;12195;55.790;37.572;2024-01-15T10:28:59;26.95;;;10.68;;
20229;SDS011;12195;55.790;37.572;2024-01-15T10:31:32;23.85;;;10.78;;
20229;SDS011;12195;55.790;37.572;2024-01-15T10:34:11;28.02;;;11.50;;
20229;SDS011;12195;55.790;37.572;2024-01-15T10:36:46;28.77;;;12.55;;
20229;SDS011;12195;55.790;37.572;2024-01-15T10:39:28;55.80;;;15.70;;
20229;SDS011;12195;55.790;37.572;2024-01-15T10:41:58;20.02;;;10.98;;
20229;SDS011;12195;55.790;37.572;2024-01-15T10:44:31;30.77;;;10.82;;
20229;SDS011;12195;55.790;37.572;2024-01-15T10:47:05;25.45;;;11.10;;
20229;SDS011;12195;55.790;37.572;2024-01-15T10:52:12;28.60;;;12.25;;
20229;SDS011;12195;55.790;37.572;2024-01-15T10:57:18;22.05;;;11.50;;
20229;SDS011;12195;55.790;37.572;2024-01-15T10:59:54;20.60;;;10.48;;
20229;SDS011;12195;55.790;37.572;2024-01-15T11:02:34;23.75;;;12.00;;
20229;SDS011;12195;55.790;37.572;2024-01-15T11:05:09;23.25;;;11.38;;
20229;SDS011;12195;55.790;37.572;2024-01-15T11:07:43;30.68;;;11.80;;
20229;SDS011;12195;55.790;37.572;2024-01-15T11:13:19;27.98;;;12.53;;
20229;SDS011;12195;55.790;37.572;2024-01-15T11:16:08;24.50;;;10.63;;
20229;SDS011;12195;55.790;37.572;2024-01-15T11:19:01;28.27;;;13.50;;
20229;SDS011;12195;55.790;37.572;2024-01-15T11:21:31;25.20;;;12.55;;
20229;SDS011;12195;55.790;37.572;2024-01-15T11:24:05;23.47;;;12.35;;
20229;SDS011;12195;55.790;37.572;2024-01-15T11:32:04;24.02;;;11.70;;
20229;SDS011;12195;55.790;37.572;2024-01-15T11:34:50;24.45;;;10.28;;
20229;SDS011;12195;55.790;37.572;2024-01-15T11:43:10;39.03;;;13.77;;
20229;SDS011;12195;55.790;37.572;2024-01-15T11:45:46;26.85;;;12.63;;
20229;SDS011;12195;55.790;37.572;2024-01-15T11:48:22;32.50;;;14.10;;
20229;SDS011;12195;55.790;37.572;2024-01-15T11:51:00;29.07;;;12.18;;
20229;SDS011;12195;55.790;37.572;2024-01-15T11:53:55;24.32;;;11.70;;
20229;SDS011;12195;55.790;37.572;2024-01-15T11:56:15;24.10;;;9.48;;
20229;SDS011;12195;55.790;37.572;2024-01-15T11:58:50;39.30;;;14.85;;
20229;SDS011;12195;55.790;37.572;2024-01-15T12:01:23;42.97;;;13.30;;
20229;SDS011;12195;55.790;37.572;2024-01-15T12:03:58;31.95;;;12.23;;
20229;SDS011;12195;55.790;37.572;2024-01-15T12:06:36;23.22;;;10.30;;
20229;SDS011;12195;55.790;37.572;2024-01-15T12:09:09;20.10;;;9.13;;
20229;SDS011;12195;55.790;37.572;2024-01-15T12:11:42;26.02;;;11.00;;
20229;SDS011;12195;55.790;37.572;2024-01-15T12:14:18;48.00;;;13.32;;
20229;SDS011;12195;55.790;37.572;2024-01-15T12:16:52;37.63;;;12.53;;
20229;SDS011;12195;55.790;37.572;2024-01-15T12:19:25;36.63;;;12.85;;
20229;SDS011;12195;55.790;37.572;2024-01-15T12:21:59;24.75;;;10.70;;
20229;SDS011;12195;55.790;37.572;2024-01-15T12:24:33;18.77;;;8.48;;
20229;SDS011;12195;55.790;37.572;2024-01-15T12:27:07;21.90;;;10.70;;
20229;SDS011;12195;55.790;37.572;2024-01-15T12:29:41;22.42;;;9.30;;
20229;SDS011;12195;55.790;37.572;2024-01-15T12:32:14;28.75;;;11.65;;
20229;SDS011;12195;55.790;37.572;2024-01-15T12:34:48;26.85;;;12.15;;
20229;SDS011;12195;55.790;37.572;2024-01-15T12:37:22;37.50;;;12.43;;
20229;SDS011;12195;55.790;37.572;2024-01-15T12:39:56;27.55;;;12.18;;
20229;SDS011;12195;55.790;37.572;2024-01-15T12:42:31;29.40;;;11.75;;
20229;SDS011;12195;55.790;37.572;2024-01-15T12:45:06;31.50;;;11.85;;
20229;SDS011;12195;55.790;37.572;2024-01-15T12:50:12;24.20;;;11.60;;
20229;SDS011;12195;55.790;37.572;2024-01-15T12:52:47;29.90;;;11.22;;
20229;SDS011;12195;55.790;37.572;2024-01-15T12:55:20;28.05;;;12.00;;
20229;SDS011;12195;55.790;37.572;2024-01-15T12:57:53;21.42;;;11.22;;
20229;SDS011;12195;55.790;37.572;2024-01-15T13:00:26;22.10;;;12.33;;
20229;SDS011;12195;55.790;37.572;2024-01-15T13:03:00;29.00;;;11.20;;
20229;SDS011;12195;55.790;37.572;2024-01-15T13:05:34;21.68;;;11.55;;
20229;SDS011;12195;55.790;37.572;2024-01-15T13:08:07;20.55;;;10.53;;
20229;SDS011;12195;55.790;37.572;2024-01-15T13:10:40;24.02;;;11.45;;
20229;SDS011;12195;55.790;37.572;2024-01-15T13:13:14;19.90;;;11.88;;
20229;SDS011;12195;55.790;37.572;2024-01-15T13:15:47;24.15;;;10.90;;
20229;SDS011;12195;55.790;37.572;2024-01-15T13:18:21;25.82;;;11.75;;
20229;SDS011;12195;55.790;37.572;2024-01-15T13:20:54;20.10;;;11.75;;
20229;SDS011;12195;55.790;37.572;2024-01-15T13:23:27;24.82;;;11.45;;
20229;SDS011;12195;55.790;37.572;2024-01-15T13:26:00;30.30;;;12.75;;
20229;SDS011;12195;55.790;37.572;2024-01-15T13:28:34;28.50;;;11.88;;
20229;SDS011;12195;55.790;37.572;2024-01-15T13:31:08;20.27;;;12.20;;
20229;SDS011;12195;55.790;37.572;2024-01-15T13:33:42;12.33;;;7.45;;
20229;SDS011;12195;55.790;37.572;2024-01-15T13:36:15;35.97;;;13.20;;
20229;SDS011;12195;55.790;37.572;2024-01-15T13:38:48;23.98;;;13.10;;
20229;SDS011;12195;55.790;37.572;2024-01-15T13:43:55;31.87;;;13.40;;
20229;SDS011;12195;55.790;37.572;2024-01-15T13:46:29;27.37;;;13.22;;
20229;SDS011;12195;55.790;37.572;2024-01-15T13:49:02;25.80;;;13.37;;
20229;SDS011;12195;55.790;37.572;2024-01-15T13:51:37;31.40;;;15.08;;
20229;SDS011;12195;55.790;37.572;2024-01-15T13:54:11;27.75;;;12.93;;
20229;SDS011;12195;55.790;37.572;2024-01-15T13:56:46;28.15;;;13.55;;
20229;SDS011;12195;55.790;37.572;2024-01-15T13:59:20;43.58;;;14.80;;
20229;SDS011;12195;55.790;37.572;2024-01-15T14:01:54;32.25;;;14.07;;
20229;SDS011;12195;55.790;37.572;2024-01-15T14:04:28;41.55;;;13.78;;
20229;SDS011;12195;55.790;37.572;2024-01-15T14:07:02;28.38;;;13.20;;
20229;SDS011;12195;55.790;37.572;2024-01-15T14:09:35;31.33;;;9.28;;
20229;SDS011;12195;55.790;37.572;2024-01-15T14:12:09;29.37;;;14.28;;
20229;SDS011;12195;55.790;37.572;2024-01-15T14:14:42;45.45;;;14.80;;
20229;SDS011;12195;55.790;37.572;2024-01-15T14:17:15;47.73;;;14.23;;
20229;SDS011;12195;55.790;37.572;2024-01-15T14:19:48;36.05;;;14.30;;
20229;SDS011;12195;55.790;37.572;2024-01-15T14:22:23;25.80;;;10.78;;
20229;SDS011;12195;55.790;37.572;2024-01-15T14:24:55;33.60;;;13.60;;
20229;SDS011;12195;55.790;37.572;2024-01-15T14:27:30;24.37;;;12.78;;
20229;SDS011;12195;55.790;37.572;2024-01-15T14:30:03;42.75;;;13.88;;
20229;SDS011;12195;55.790;37.572;2024-01-15T14:32:36;24.57;;;13.58;;
20229;SDS011;12195;55.790;37.572;2024-01-15T14:35:09;33.23;;;13.60;;
20229;SDS011;12195;55.790;37.572;2024-01-15T14:37:41;28.12;;;13.98;;
20229;SDS011;12195;55.790;37.572;2024-01-15T14:40:14;28.42;;;12.98;;
20229;SDS011;12195;55.790;37.572;2024-01-15T14:42:47;21.80;;;9.20;;
20229;SDS011;12195;55.790;37.572;2024-01-15T14:45:21;17.10;;;9.08;;
20229;SDS011;12195;55.790;37.572;2024-01-15T14:47:54;34.70;;;15.18;;
20229;SDS011;12195;55.790;37.572;2024-01-15T14:50:29;26.17;;;13.22;;
20229;SDS011;12195;55.790;37.572;2024-01-15T14:53:03;23.12;;;12.20;;
20229;SDS011;12195;55.790;37.572;2024-01-15T14:55:36;26.60;;;12.75;;
20229;SDS011;12195;55.790;37.572;2024-01-15T15:00:41;26.42;;;13.38;;
20229;SDS011;12195;55.790;37.572;2024-01-15T15:03:16;25.32;;;13.32;;
20229;SDS011;12195;55.790;37.572;2024-01-15T15:05:49;25.08;;;13.28;;
20229;SDS011;12195;55.790;37.572;2024-01-15T15:10:55;22.35;;;8.75;;
20229;SDS011;12195;55.790;37.572;2024-01-15T15:13:29;31.10;;;13.22;;
20229;SDS011;12195;55.790;37.572;2024-01-15T15:16:03;34.25;;;13.88;;
20229;SDS011;12195;55.790;37.572;2024-01-15T15:18:37;21.40;;;11.95;;
20229;SDS011;12195;55.790;37.572;2024-01-15T15:21:10;28.32;;;12.45;;
20229;SDS011;12195;55.790;37.572;2024-01-15T15:23:44;31.48;;;14.65;;
20229;SDS011;12195;55.790;37.572;2024-01-15T15:28:49;21.35;;;11.05;;
20229;SDS011;12195;55.790;37.572;2024-01-15T15:31:24;22.90;;;12.88;;
20229;SDS011;12195;55.790;37.572;2024-01-15T15:36:30;31.37;;;13.53;;
20229;SDS011;12195;55.790;37.572;2024-01-15T15:39:03;24.15;;;11.95;;
20229;SDS011;12195;55.790;37.572;2024-01-15T15:41:36;25.35;;;13.05;;
20229;SDS011;12195;55.790;37.572;2024-01-15T15:44:09;16.42;;;9.80;;
20229;SDS011;12195;55.790;37.572;2024-01-15T15:46:44;28.35;;;14.15;;
20229;SDS011;12195;55.790;37.572;2024-01-15T15:49:18;28.15;;;12.25;;
20229;SDS011;12195;55.790;37.572;2024-01-15T15:51:52;26.17;;;10.23;;
20229;SDS011;12195;55.790;37.572;2024-01-15T15:54:25;26.80;;;14.07;;
20229;SDS011;12195;55.790;37.572;2024-01-15T15:56:58;26.30;;;13.38;;
20229;SDS011;12195;55.790;37.572;2024-01-15T15:59:31;29.42;;;12.68;;